sensor_id;sensor_type;location;lat;lon;timestamp;pressure;altitude;pressure_sealevel;temperature;humidity
11302;BME280;5706;50.650;13.380;2022-07-29T04:26:37;56087.66;;;-140.63;65.21
11302;BME280;5706;50.650;13.380;2022-07-29T04:29:08;56127.41;;;-140.63;64.70
11302;BME280;5706;50.650;13.380;2022-07-29T04:31:37;56121.47;;;-140.63;64.72
11302;BME280;5706;50.650;13.380;2022-07-29T04:34:05;56131.41;;;-140.63;65.13
11302;BME280;5706;50.650;13.380;2022-07-29T04:36:33;56151.28;;;-140.63;65.43
11302;BME280;5706;50.650;13.380;2022-07-29T04:39:00;56133.38;;;-140.63;65.50
11302;BME280;5706;50.650;13.380;2022-07-29T04:41:31;56097.59;;;-140.63;66.34
11302;BME280;5706;50.650;13.380;2022-07-29T04:43:59;56093.63;;;-140.63;66.12
11302;BME280;5706;50.650;13.380;2022-07-29T04:46:31;56117.47;;;-140.63;67.49
11302;BME280;5706;50.650;13.380;2022-07-29T04:48:58;56073.75;;;-140.63;65.84
11302;BME280;5706;50.650;13.380;2022-07-29T04:51:26;56119.47;;;-140.63;65.60
11302;BME280;5706;50.650;13.380;2022-07-29T04:53:54;56089.66;;;-140.63;64.12
11302;BME280;5706;50.650;13.380;2022-07-29T04:56:21;56081.69;;;-140.63;64.20
11302;BME280;5706;50.650;13.380;2022-07-29T04:58:52;56099.59;;;-140.63;63.72
11302;BME280;5706;50.650;13.380;2022-07-29T05:01:20;56119.47;;;-140.63;65.64
11302;BME280;5706;50.650;13.380;2022-07-29T05:03:48;56093.63;;;-140.63;63.70
11302;BME280;5706;50.650;13.380;2022-07-29T05:06:15;56075.72;;;-140.63;62.63
11302;BME280;5706;50.650;13.380;2022-07-29T05:08:43;56099.59;;;-140.63;61.98
11302;BME280;5706;50.650;13.380;2022-07-29T05:11:11;56105.56;;;-140.63;61.95
11302;BME280;5706;50.650;13.380;2022-07-29T05:13:39;56107.53;;;-140.63;62.06
11302;BME280;5706;50.650;13.380;2022-07-29T05:16:09;56087.66;;;-140.63;62.82
11302;BME280;5706;50.650;13.380;2022-07-29T05:18:37;56103.56;;;-140.63;61.91
11302;BME280;5706;50.650;13.380;2022-07-29T05:21:04;56109.53;;;-140.63;61.41
11302;BME280;5706;50.650;13.380;2022-07-29T05:23:32;56095.63;;;-140.63;62.39
11302;BME280;5706;50.650;13.380;2022-07-29T05:26:00;56119.47;;;-140.63;62.92
11302;BME280;5706;50.650;13.380;2022-07-29T05:28:33;56075.72;;;-140.63;62.05
11302;BME280;5706;50.650;13.380;2022-07-29T05:31:35;56135.38;;;-140.63;63.36
11302;BME280;5706;50.650;13.380;2022-07-29T05:34:06;56089.66;;;-140.63;61.89
11302;BME280;5706;50.650;13.380;2022-07-29T05:36:34;56079.72;;;-140.63;61.61
11302;BME280;5706;50.650;13.380;2022-07-29T05:39:01;56091.63;;;-140.63;61.46
11302;BME280;5706;50.650;13.380;2022-07-29T05:41:31;56081.69;;;-140.63;61.10
11302;BME280;5706;50.650;13.380;2022-07-29T05:43:59;56051.88;;;-140.63;61.58
11302;BME280;5706;50.650;13.380;2022-07-29T05:46:27;56079.72;;;-140.63;61.58
11302;BME280;5706;50.650;13.380;2022-07-29T05:48:56;56065.78;;;-140.63;60.64
11302;BME280;5706;50.650;13.380;2022-07-29T05:51:24;56069.78;;;-140.63;60.56
11302;BME280;5706;50.650;13.380;2022-07-29T05:53:52;56075.72;;;-140.63;59.98
11302;BME280;5706;50.650;13.380;2022-07-29T05:56:19;56055.84;;;-140.63;57.46
11302;BME280;5706;50.650;13.380;2022-07-29T05:58:47;56103.56;;;-140.63;56.42
11302;BME280;5706;50.650;13.380;2022-07-29T06:01:15;56089.66;;;-140.63;54.65
11302;BME280;5706;50.650;13.380;2022-07-29T06:03:42;56063.81;;;-140.63;53.95
11302;BME280;5706;50.650;13.380;2022-07-29T06:06:11;56043.91;;;-140.63;56.01
11302;BME280;5706;50.650;13.380;2022-07-29T06:08:39;56065.78;;;-140.63;55.51
11302;BME280;5706;50.650;13.380;2022-07-29T06:11:07;56081.69;;;-140.63;54.07
11302;BME280;5706;50.650;13.380;2022-07-29T06:13:35;56039.94;;;-140.63;51.60
11302;BME280;5706;50.650;13.380;2022-07-29T06:16:03;56103.56;;;-140.63;51.42
11302;BME280;5706;50.650;13.380;2022-07-29T06:18:31;56063.81;;;-140.63;51.17
11302;BME280;5706;50.650;13.380;2022-07-29T06:20:59;56065.78;;;-140.63;50.20
11302;BME280;5706;50.650;13.380;2022-07-29T06:23:28;56045.91;;;-140.63;49.96
11302;BME280;5706;50.650;13.380;2022-07-29T06:25:59;56039.94;;;-140.63;49.53
11302;BME280;5706;50.650;13.380;2022-07-29T06:28:27;56051.88;;;-140.63;49.31
11302;BME280;5706;50.650;13.380;2022-07-29T06:30:55;56030.00;;;-140.63;49.67
11302;BME280;5706;50.650;13.380;2022-07-29T06:33:23;56051.88;;;-140.63;48.97
11302;BME280;5706;50.650;13.380;2022-07-29T06:35:51;56024.03;;;-140.63;48.55
11302;BME280;5706;50.650;13.380;2022-07-29T06:38:18;56055.84;;;-140.63;47.98
11302;BME280;5706;50.650;13.380;2022-07-29T06:40:48;56061.81;;;-140.63;48.03
11302;BME280;5706;50.650;13.380;2022-07-29T06:43:31;56043.91;;;-140.63;47.74
11302;BME280;5706;50.650;13.380;2022-07-29T06:46:02;56069.78;;;-140.63;47.94
11302;BME280;5706;50.650;13.380;2022-07-29T06:48:32;56047.91;;;-140.63;47.85
11302;BME280;5706;50.650;13.380;2022-07-29T06:51:01;56047.91;;;-140.63;47.57
11302;BME280;5706;50.650;13.380;2022-07-29T06:53:31;56071.75;;;-140.63;47.22
11302;BME280;5706;50.650;13.380;2022-07-29T06:56:01;56037.97;;;-140.63;48.14
11302;BME280;5706;50.650;13.380;2022-07-29T06:58:31;56020.06;;;-140.63;47.61
11302;BME280;5706;50.650;13.380;2022-07-29T07:01:01;56035.97;;;-140.63;47.89
11302;BME280;5706;50.650;13.380;2022-07-29T07:03:31;56035.97;;;-140.63;48.37
11302;BME280;5706;50.650;13.380;2022-07-29T07:05:59;56065.78;;;-140.63;47.77
11302;BME280;5706;50.650;13.380;2022-07-29T07:08:27;56032.00;;;-140.63;48.18
11302;BME280;5706;50.650;13.380;2022-07-29T07:10:55;56041.94;;;-140.63;47.80
11302;BME280;5706;50.650;13.380;2022-07-29T07:13:24;56043.91;;;-140.63;47.29
11302;BME280;5706;50.650;13.380;2022-07-29T07:15:53;56028.00;;;-140.63;46.89
11302;BME280;5706;50.650;13.380;2022-07-29T07:18:21;56051.88;;;-140.63;46.67
11302;BME280;5706;50.650;13.380;2022-07-29T07:20:49;56041.94;;;-140.63;46.09
11302;BME280;5706;50.650;13.380;2022-07-29T07:23:16;56024.03;;;-140.63;45.95
11302;BME280;5706;50.650;13.380;2022-07-29T07:25:44;56037.97;;;-140.63;45.94
11302;BME280;5706;50.650;13.380;2022-07-29T07:28:12;56045.91;;;-140.63;44.84
11302;BME280;5706;50.650;13.380;2022-07-29T07:30:41;56006.16;;;-140.63;44.37
11302;BME280;5706;50.650;13.380;2022-07-29T07:33:09;56016.09;;;-140.63;45.27
11302;BME280;5706;50.650;13.380;2022-07-29T07:35:37;56018.06;;;-140.63;45.25
11302;BME280;5706;50.650;13.380;2022-07-29T07:38:05;56020.06;;;-140.63;44.29
11302;BME280;5706;50.650;13.380;2022-07-29T07:40:33;56047.91;;;-140.63;44.88
11302;BME280;5706;50.650;13.380;2022-07-29T07:43:01;56037.97;;;-140.63;44.54
11302;BME280;5706;50.650;13.380;2022-07-29T07:45:30;56012.13;;;-140.63;44.35
11302;BME280;5706;50.650;13.380;2022-07-29T07:48:00;56037.97;;;-140.63;44.62
11302;BME280;5706;50.650;13.380;2022-07-29T07:50:29;56012.13;;;-140.63;43.88
11302;BME280;5706;50.650;13.380;2022-07-29T07:52:57;56016.09;;;-140.63;44.64
11302;BME280;5706;50.650;13.380;2022-07-29T07:55:45;56037.97;;;-140.63;44.70
11302;BME280;5706;50.650;13.380;2022-07-29T07:58:24;56020.06;;;-140.63;44.47
11302;BME280;5706;50.650;13.380;2022-07-29T08:00:55;56024.03;;;-140.63;44.37
11302;BME280;5706;50.650;13.380;2022-07-29T08:03:27;56012.13;;;-140.63;45.19
11302;BME280;5706;50.650;13.380;2022-07-29T08:05:56;56026.03;;;-140.63;44.75
11302;BME280;5706;50.650;13.380;2022-07-29T08:08:23;56020.06;;;-140.63;44.26
11302;BME280;5706;50.650;13.380;2022-07-29T08:10:51;55998.19;;;-140.63;44.57
11302;BME280;5706;50.650;13.380;2022-07-29T08:13:23;56061.81;;;-140.63;44.38
11302;BME280;5706;50.650;13.380;2022-07-29T08:15:54;56008.13;;;-140.63;44.67
11302;BME280;5706;50.650;13.380;2022-07-29T08:18:37;56030.00;;;-140.63;44.72
11302;BME280;5706;50.650;13.380;2022-07-29T08:21:30;56043.91;;;-140.63;44.61
11302;BME280;5706;50.650;13.380;2022-07-29T08:24:25;56022.06;;;-140.63;43.69
11302;BME280;5706;50.650;13.380;2022-07-29T08:27:39;56006.16;;;-140.63;43.71
11302;BME280;5706;50.650;13.380;2022-07-29T08:33:05;56000.19;;;-140.63;43.89
11302;BME280;5706;50.650;13.380;2022-07-29T08:46:20;56018.06;;;-140.63;42.06
11302;BME280;5706;50.650;13.380;2022-07-29T09:48:25;55948.50;;;-140.63;30.53
11302;BME280;5706;50.650;13.380;2022-07-29T09:50:54;55948.50;;;-140.63;31.69
11302;BME280;5706;50.650;13.380;2022-07-29T09:53:30;55930.59;;;-140.63;30.96
11302;BME280;5706;50.650;13.380;2022-07-29T09:56:02;55932.59;;;-140.63;30.05
11302;BME280;5706;50.650;13.380;2022-07-29T09:58:34;55926.63;;;-140.63;30.26
11302;BME280;5706;50.650;13.380;2022-07-29T10:01:04;55928.63;;;-140.63;30.43
11302;BME280;5706;50.650;13.380;2022-07-29T10:04:08;55930.59;;;-140.63;30.48
11302;BME280;5706;50.650;13.380;2022-07-29T10:06:57;55912.72;;;-140.63;30.01
11302;BME280;5706;50.650;13.380;2022-07-29T10:12:47;55956.44;;;-140.63;30.74
11302;BME280;5706;50.650;13.380;2022-07-29T10:15:24;55912.72;;;-140.63;30.31
11302;BME280;5706;50.650;13.380;2022-07-29T10:18:02;55938.56;;;-140.63;29.11
11302;BME280;5706;50.650;13.380;2022-07-29T10:24:35;55940.53;;;-140.63;29.83
11302;BME280;5706;50.650;13.380;2022-07-29T10:30:22;55926.63;;;-140.63;30.31
11302;BME280;5706;50.650;13.380;2022-07-29T10:33:30;55916.69;;;-140.63;30.39
11302;BME280;5706;50.650;13.380;2022-07-29T10:36:38;55968.38;;;-140.63;30.91
11302;BME280;5706;50.650;13.380;2022-07-29T10:39:25;55988.25;;;-140.63;31.00
11302;BME280;5706;50.650;13.380;2022-07-29T10:42:13;55984.28;;;-140.63;31.34
11302;BME280;5706;50.650;13.380;2022-07-29T10:44:44;55960.41;;;-140.63;32.35
11302;BME280;5706;50.650;13.380;2022-07-29T10:47:20;55968.38;;;-140.63;32.21
11302;BME280;5706;50.650;13.380;2022-07-29T10:49:58;55948.50;;;-140.63;31.46
11302;BME280;5706;50.650;13.380;2022-07-29T11:17:28;56004.16;;;-140.63;34.30
11302;BME280;5706;50.650;13.380;2022-07-29T11:23:46;55926.63;;;-140.63;32.19
11302;BME280;5706;50.650;13.380;2022-07-29T11:37:06;56030.00;;;-140.63;34.40
11302;BME280;5706;50.650;13.380;2022-07-29T11:59:46;56010.13;;;-140.63;33.46
11302;BME280;5706;50.650;13.380;2022-07-29T12:02:39;55984.28;;;-140.63;33.90
11302;BME280;5706;50.650;13.380;2022-07-29T12:05:16;55946.50;;;-140.63;33.50
11302;BME280;5706;50.650;13.380;2022-07-29T12:07:44;55932.59;;;-140.63;33.47
11302;BME280;5706;50.650;13.380;2022-07-29T12:11:55;55980.31;;;-140.63;32.89
11302;BME280;5706;50.650;13.380;2022-07-29T12:14:26;55968.38;;;-140.63;33.12
11302;BME280;5706;50.650;13.380;2022-07-29T13:18:47;56014.09;;;-140.63;35.52
11302;BME280;5706;50.650;13.380;2022-07-29T13:21:15;55990.25;;;-140.63;34.61
11302;BME280;5706;50.650;13.380;2022-07-29T13:23:53;56012.13;;;-140.63;34.65
11302;BME280;5706;50.650;13.380;2022-07-29T13:26:21;55974.34;;;-140.63;34.38
11302;BME280;5706;50.650;13.380;2022-07-29T13:28:49;56002.16;;;-140.63;35.03
11302;BME280;5706;50.650;13.380;2022-07-29T13:31:17;56002.16;;;-140.63;35.59
11302;BME280;5706;50.650;13.380;2022-07-29T13:33:47;55994.22;;;-140.63;35.22
11302;BME280;5706;50.650;13.380;2022-07-29T13:36:14;56020.06;;;-140.63;35.20
11302;BME280;5706;50.650;13.380;2022-07-29T13:38:42;56004.16;;;-140.63;35.57
11302;BME280;5706;50.650;13.380;2022-07-29T13:41:10;56008.13;;;-140.63;35.09
11302;BME280;5706;50.650;13.380;2022-07-29T13:43:39;56026.03;;;-140.63;34.50
11302;BME280;5706;50.650;13.380;2022-07-29T13:46:06;56004.16;;;-140.63;34.75
11302;BME280;5706;50.650;13.380;2022-07-29T13:48:34;56014.09;;;-140.63;34.39
11302;BME280;5706;50.650;13.380;2022-07-29T13:51:03;55984.28;;;-140.63;34.30
11302;BME280;5706;50.650;13.380;2022-07-29T13:53:31;55984.28;;;-140.63;35.59
11302;BME280;5706;50.650;13.380;2022-07-29T13:55:58;55998.19;;;-140.63;35.50
11302;BME280;5706;50.650;13.380;2022-07-29T13:58:26;55986.28;;;-140.63;34.84
11302;BME280;5706;50.650;13.380;2022-07-29T14:00:55;56004.16;;;-140.63;34.68
11302;BME280;5706;50.650;13.380;2022-07-29T14:03:23;55992.22;;;-140.63;34.53
11302;BME280;5706;50.650;13.380;2022-07-29T14:05:51;56004.16;;;-140.63;34.68
11302;BME280;5706;50.650;13.380;2022-07-29T14:08:20;55994.22;;;-140.63;34.92
11302;BME280;5706;50.650;13.380;2022-07-29T14:10:47;55982.28;;;-140.63;34.78
11302;BME280;5706;50.650;13.380;2022-07-29T14:13:15;55996.22;;;-140.63;34.51
11302;BME280;5706;50.650;13.380;2022-07-29T14:15:43;56006.16;;;-140.63;34.00
11302;BME280;5706;50.650;13.380;2022-07-29T14:18:11;56000.19;;;-140.63;34.22
11302;BME280;5706;50.650;13.380;2022-07-29T14:20:39;56012.13;;;-140.63;33.77
11302;BME280;5706;50.650;13.380;2022-07-29T14:23:07;55992.22;;;-140.63;34.04
11302;BME280;5706;50.650;13.380;2022-07-29T14:25:36;55968.38;;;-140.63;33.72
11302;BME280;5706;50.650;13.380;2022-07-29T14:28:04;55964.41;;;-140.63;33.04
11302;BME280;5706;50.650;13.380;2022-07-29T14:30:32;55988.25;;;-140.63;33.70
11302;BME280;5706;50.650;13.380;2022-07-29T14:33:00;55950.47;;;-140.63;33.70
11302;BME280;5706;50.650;13.380;2022-07-29T14:35:29;56016.09;;;-140.63;33.77
11302;BME280;5706;50.650;13.380;2022-07-29T14:37:57;56059.81;;;-140.63;33.84
11302;BME280;5706;50.650;13.380;2022-07-29T14:40:25;56014.09;;;-140.63;33.48
11302;BME280;5706;50.650;13.380;2022-07-29T14:42:54;55996.22;;;-140.63;33.28
11302;BME280;5706;50.650;13.380;2022-07-29T14:45:22;55976.31;;;-140.63;33.42
11302;BME280;5706;50.650;13.380;2022-07-29T14:47:50;55960.41;;;-140.63;33.48
11302;BME280;5706;50.650;13.380;2022-07-29T14:50:18;55954.47;;;-140.63;33.56
11302;BME280;5706;50.650;13.380;2022-07-29T14:52:46;55956.44;;;-140.63;34.43
11302;BME280;5706;50.650;13.380;2022-07-29T14:55:14;56010.13;;;-140.63;34.18
11302;BME280;5706;50.650;13.380;2022-07-29T14:57:41;55984.28;;;-140.63;34.17
11302;BME280;5706;50.650;13.380;2022-07-29T15:00:11;55968.38;;;-140.63;33.90
11302;BME280;5706;50.650;13.380;2022-07-29T15:02:40;55980.31;;;-140.63;34.00
11302;BME280;5706;50.650;13.380;2022-07-29T15:05:08;56020.06;;;-140.63;34.48
11302;BME280;5706;50.650;13.380;2022-07-29T15:07:36;56026.03;;;-140.63;34.88
11302;BME280;5706;50.650;13.380;2022-07-29T15:10:04;56004.16;;;-140.63;34.10
11302;BME280;5706;50.650;13.380;2022-07-29T15:12:33;55976.31;;;-140.63;34.73
11302;BME280;5706;50.650;13.380;2022-07-29T15:15:00;55990.25;;;-140.63;34.10
11302;BME280;5706;50.650;13.380;2022-07-29T15:17:31;55972.34;;;-140.63;34.29
11302;BME280;5706;50.650;13.380;2022-07-29T15:19:59;55990.25;;;-140.63;34.47
11302;BME280;5706;50.650;13.380;2022-07-29T15:22:27;55996.22;;;-140.63;34.76
11302;BME280;5706;50.650;13.380;2022-07-29T15:24:55;56012.13;;;-140.63;35.01
11302;BME280;5706;50.650;13.380;2022-07-29T15:27:22;56000.19;;;-140.63;34.85
11302;BME280;5706;50.650;13.380;2022-07-29T15:29:51;56012.13;;;-140.63;35.22
11302;BME280;5706;50.650;13.380;2022-07-29T15:32:18;56006.16;;;-140.63;35.42
11302;BME280;5706;50.650;13.380;2022-07-29T15:34:48;55980.31;;;-140.63;35.27
11302;BME280;5706;50.650;13.380;2022-07-29T15:37:15;56008.13;;;-140.63;35.48
11302;BME280;5706;50.650;13.380;2022-07-29T15:39:43;56004.16;;;-140.63;35.82
11302;BME280;5706;50.650;13.380;2022-07-29T15:42:11;56000.19;;;-140.63;35.77
11302;BME280;5706;50.650;13.380;2022-07-29T15:44:39;55996.22;;;-140.63;35.87
11302;BME280;5706;50.650;13.380;2022-07-29T15:47:07;56016.09;;;-140.63;36.03
11302;BME280;5706;50.650;13.380;2022-07-29T15:49:37;55996.22;;;-140.63;36.20
11302;BME280;5706;50.650;13.380;2022-07-29T15:52:08;56002.16;;;-140.63;36.20
11302;BME280;5706;50.650;13.380;2022-07-29T15:54:38;56000.19;;;-140.63;35.71
11302;BME280;5706;50.650;13.380;2022-07-29T15:57:07;55982.28;;;-140.63;35.90
11302;BME280;5706;50.650;13.380;2022-07-29T15:59:34;56022.06;;;-140.63;35.80
11302;BME280;5706;50.650;13.380;2022-07-29T16:02:02;55986.28;;;-140.63;36.13
11302;BME280;5706;50.650;13.380;2022-07-29T16:04:31;56000.19;;;-140.63;35.91
11302;BME280;5706;50.650;13.380;2022-07-29T16:06:59;56028.00;;;-140.63;35.49
11302;BME280;5706;50.650;13.380;2022-07-29T16:09:28;55996.22;;;-140.63;35.66
11302;BME280;5706;50.650;13.380;2022-07-29T16:11:55;55968.38;;;-140.63;36.24
11302;BME280;5706;50.650;13.380;2022-07-29T16:14:23;55998.19;;;-140.63;35.98
11302;BME280;5706;50.650;13.380;2022-07-29T16:16:51;56006.16;;;-140.63;36.09
11302;BME280;5706;50.650;13.380;2022-07-29T16:19:19;55988.25;;;-140.63;35.83
11302;BME280;5706;50.650;13.380;2022-07-29T16:21:47;56002.16;;;-140.63;35.23
11302;BME280;5706;50.650;13.380;2022-07-29T16:24:14;55996.22;;;-140.63;35.26
11302;BME280;5706;50.650;13.380;2022-07-29T16:26:44;55982.28;;;-140.63;36.04
11302;BME280;5706;50.650;13.380;2022-07-29T16:29:11;56000.19;;;-140.63;36.66
11302;BME280;5706;50.650;13.380;2022-07-29T16:31:39;56002.16;;;-140.63;36.67
11302;BME280;5706;50.650;13.380;2022-07-29T16:34:07;56018.06;;;-140.63;36.98
11302;BME280;5706;50.650;13.380;2022-07-29T16:36:34;56010.13;;;-140.63;36.99
11302;BME280;5706;50.650;13.380;2022-07-29T16:39:02;56041.94;;;-140.63;37.59
11302;BME280;5706;50.650;13.380;2022-07-29T16:41:30;56020.06;;;-140.63;37.92
11302;BME280;5706;50.650;13.380;2022-07-29T16:43:59;56022.06;;;-140.63;38.02
11302;BME280;5706;50.650;13.380;2022-07-29T16:46:27;55998.19;;;-140.63;37.68
11302;BME280;5706;50.650;13.380;2022-07-29T16:48:55;56012.13;;;-140.63;37.86
11302;BME280;5706;50.650;13.380;2022-07-29T16:51:23;56043.91;;;-140.63;37.60
11302;BME280;5706;50.650;13.380;2022-07-29T16:53:50;56037.97;;;-140.63;39.52
11302;BME280;5706;50.650;13.380;2022-07-29T16:56:18;55988.25;;;-140.63;40.21
11302;BME280;5706;50.650;13.380;2022-07-29T16:58:46;56020.06;;;-140.63;40.36
11302;BME280;5706;50.650;13.380;2022-07-29T17:01:15;56004.16;;;-140.63;40.40
11302;BME280;5706;50.650;13.380;2022-07-29T17:03:44;56028.00;;;-140.63;40.56
11302;BME280;5706;50.650;13.380;2022-07-29T17:06:29;56037.97;;;-140.63;41.30
11302;BME280;5706;50.650;13.380;2022-07-29T17:08:59;56010.13;;;-140.63;41.91
11302;BME280;5706;50.650;13.380;2022-07-29T17:11:41;55984.28;;;-140.63;42.50
11302;BME280;5706;50.650;13.380;2022-07-29T17:14:09;56030.00;;;-140.63;43.70
11302;BME280;5706;50.650;13.380;2022-07-29T17:16:39;56035.97;;;-140.63;43.95
11302;BME280;5706;50.650;13.380;2022-07-29T17:19:06;56010.13;;;-140.63;43.68
11302;BME280;5706;50.650;13.380;2022-07-29T17:21:34;56020.06;;;-140.63;45.76
11302;BME280;5706;50.650;13.380;2022-07-29T17:24:02;56035.97;;;-140.63;46.76
11302;BME280;5706;50.650;13.380;2022-07-29T17:26:30;56004.16;;;-140.63;46.99
11302;BME280;5706;50.650;13.380;2022-07-29T17:28:58;56039.94;;;-140.63;47.68
11302;BME280;5706;50.650;13.380;2022-07-29T17:31:26;56024.03;;;-140.63;48.23
11302;BME280;5706;50.650;13.380;2022-07-29T17:33:55;56022.06;;;-140.63;48.26
11302;BME280;5706;50.650;13.380;2022-07-29T17:36:24;56055.84;;;-140.63;48.30
11302;BME280;5706;50.650;13.380;2022-07-29T17:38:52;56018.06;;;-140.63;48.98
11302;BME280;5706;50.650;13.380;2022-07-29T17:41:24;56022.06;;;-140.63;49.24
11302;BME280;5706;50.650;13.380;2022-07-29T17:43:52;56069.78;;;-140.63;49.66
11302;BME280;5706;50.650;13.380;2022-07-29T17:46:23;56016.09;;;-140.63;49.84
11302;BME280;5706;50.650;13.380;2022-07-29T17:48:56;56055.84;;;-140.63;50.17
11302;BME280;5706;50.650;13.380;2022-07-29T17:51:25;56049.88;;;-140.63;50.56
11302;BME280;5706;50.650;13.380;2022-07-29T17:53:53;56095.63;;;-140.63;51.65
11302;BME280;5706;50.650;13.380;2022-07-29T17:56:23;56032.00;;;-140.63;52.28
11302;BME280;5706;50.650;13.380;2022-07-29T17:58:51;56067.78;;;-140.63;52.41
11302;BME280;5706;50.650;13.380;2022-07-29T18:01:19;56059.81;;;-140.63;52.91
11302;BME280;5706;50.650;13.380;2022-07-29T18:03:46;56061.81;;;-140.63;52.85
